createdAt,value
2019-04-05T00:01:25.068Z,53.41
2019-04-05T00:03:33.609Z,53.38
2019-04-05T00:05:42.183Z,53.55
2019-04-05T00:07:48.969Z,53.50
2019-04-05T00:09:56.021Z,53.44
2019-04-05T00:12:03.069Z,53.52
2019-04-05T00:14:10.949Z,53.45
2019-04-05T00:16:18.598Z,53.54
2019-04-05T00:18:25.817Z,53.54
2019-04-05T00:20:32.764Z,53.62
2019-04-05T00:22:39.914Z,53.83
2019-04-05T00:24:46.459Z,53.85
2019-04-05T00:26:54.059Z,54.14
2019-04-05T00:29:01.865Z,54.25
2019-04-05T00:31:09.997Z,54.45
2019-04-05T00:33:17.254Z,54.44
2019-04-05T00:35:24.121Z,54.34
2019-04-05T00:37:30.908Z,54.29
2019-04-05T00:39:42.285Z,54.21
2019-04-05T00:41:53.582Z,54.26
2019-04-05T00:44:04.180Z,54.44
2019-04-05T00:46:18.550Z,54.49
2019-04-05T00:48:29.764Z,54.62
2019-04-05T00:50:38.803Z,54.70
2019-04-05T00:52:45.526Z,55.04
2019-04-05T00:54:54.005Z,54.97
2019-04-05T00:57:00.819Z,55.23
2019-04-05T00:59:11.369Z,55.15
2019-04-05T01:01:21.264Z,55.26
2019-04-05T01:03:29.671Z,55.50
2019-04-05T01:05:43.759Z,55.54
2019-04-05T01:07:51.825Z,55.73
2019-04-05T01:09:58.867Z,55.60
2019-04-05T01:12:05.617Z,55.54
2019-04-05T01:14:12.534Z,55.68
2019-04-05T01:16:19.404Z,55.87
2019-04-05T01:18:26.352Z,56.26
2019-04-05T01:20:36.803Z,56.17
2019-04-05T01:22:46.041Z,56.13
2019-04-05T01:24:53.213Z,56.43
2019-04-05T01:27:05.789Z,56.47
2019-04-05T01:29:16.141Z,56.45
2019-04-05T01:31:24.206Z,56.50
2019-04-05T01:33:32.555Z,56.93
2019-04-05T01:35:39.273Z,56.81
2019-04-05T01:37:46.678Z,56.78
2019-04-05T01:39:53.837Z,56.87
2019-04-05T01:42:03.928Z,56.69
2019-04-05T01:44:11.190Z,56.84
2019-04-05T01:46:19.104Z,56.80
2019-04-05T01:48:26.062Z,56.93
2019-04-05T01:50:33.458Z,57.10
2019-04-05T01:52:42.761Z,57.23
2019-04-05T01:54:49.758Z,57.43
2019-04-05T01:56:57.115Z,57.43
2019-04-05T01:59:03.837Z,57.46
2019-04-05T02:01:29.061Z,57.77
2019-04-05T02:03:40.191Z,57.62
2019-04-05T02:05:57.272Z,57.77
2019-04-05T02:08:16.852Z,57.92
2019-04-05T02:10:28.017Z,58.04
2019-04-05T02:12:35.444Z,57.86
2019-04-05T02:14:42.589Z,58.05
2019-04-05T02:16:49.989Z,58.07
2019-04-05T02:18:57.226Z,58.06
2019-04-05T02:21:03.807Z,58.02
2019-04-05T02:23:11.017Z,58.17
2019-04-05T02:25:17.919Z,58.36
2019-04-05T02:27:25.133Z,58.28
2019-04-05T02:29:32.836Z,58.30
2019-04-05T02:31:39.488Z,58.50
2019-04-05T02:33:48.187Z,58.30
2019-04-05T02:35:55.449Z,58.61
2019-04-05T02:38:02.634Z,58.58
2019-04-05T02:40:16.930Z,58.63
2019-04-05T02:42:24.373Z,58.73
2019-04-05T02:44:33.542Z,58.61
2019-04-05T02:46:43.011Z,58.77
2019-04-05T02:48:51.801Z,58.72
2019-04-05T02:51:03.696Z,58.74
2019-04-05T02:53:13.146Z,58.93
2019-04-05T02:55:20.965Z,59.01
2019-04-05T02:57:29.447Z,58.90
2019-04-05T02:59:37.604Z,59.84
2019-04-05T03:01:46.365Z,59.38
2019-04-05T03:03:54.988Z,59.21
2019-04-05T03:06:11.405Z,60.04
2019-04-05T03:08:26.759Z,58.61
2019-04-05T03:11:06.418Z,58.71
2019-04-05T03:13:16.259Z,60.05
2019-04-05T03:15:25.953Z,59.13
2019-04-05T03:17:40.409Z,58.78
2019-04-05T03:19:51.065Z,58.92
2019-04-05T03:22:21.220Z,59.37
2019-04-05T03:24:32.668Z,59.76
2019-04-05T03:26:43.674Z,59.13
2019-04-05T03:28:56.779Z,59.18
2019-04-05T03:31:03.937Z,59.25
2019-04-05T03:33:11.492Z,59.68
2019-04-05T03:35:19.001Z,59.44
2019-04-05T03:37:26.545Z,60.44
2019-04-05T03:39:35.172Z,60.61
2019-04-05T03:41:42.460Z,59.69
2019-04-05T03:43:53.674Z,59.91
2019-04-05T03:46:01.045Z,59.88
2019-04-05T03:48:07.994Z,59.79
2019-04-05T03:50:15.222Z,59.72
2019-04-05T03:52:22.208Z,59.52
2019-04-05T03:54:29.378Z,59.48
2019-04-05T03:56:38.206Z,59.80
2019-04-05T03:58:45.225Z,59.69
2019-04-05T04:00:54.654Z,59.64
2019-04-05T04:03:03.305Z,60.23
2019-04-05T04:05:10.489Z,59.72
2019-04-05T04:07:18.410Z,60.11
2019-04-05T04:09:25.275Z,61.14
2019-04-05T04:11:33.977Z,60.06
2019-04-05T04:13:41.389Z,59.48
2019-04-05T04:15:48.219Z,59.34
2019-04-05T04:17:56.093Z,59.37
2019-04-05T04:20:05.418Z,59.34
2019-04-05T04:22:30.573Z,59.92
2019-04-05T04:24:38.325Z,60.18
2019-04-05T04:26:45.706Z,59.87
2019-04-05T04:28:53.787Z,59.72
2019-04-05T04:31:04.585Z,59.37
2019-04-05T04:33:12.425Z,60.18
2019-04-05T04:35:20.021Z,59.31
2019-04-05T04:37:27.793Z,59.91
2019-04-05T04:39:35.025Z,58.73
2019-04-05T04:41:42.209Z,58.86
2019-04-05T04:43:49.686Z,58.19
2019-04-05T04:45:57.069Z,58.48
2019-04-05T04:48:04.803Z,58.98
2019-04-05T04:50:12.982Z,58.81
2019-04-05T04:52:21.579Z,57.65
2019-04-05T04:54:28.548Z,57.70
2019-04-05T04:56:35.736Z,58.39
2019-04-05T04:58:43.087Z,58.82
2019-04-05T05:00:50.305Z,57.61
2019-04-05T05:02:57.692Z,57.64
2019-04-05T05:05:06.677Z,57.53
2019-04-05T05:07:13.724Z,58.03
2019-04-05T05:09:21.324Z,57.93
2019-04-05T05:11:28.663Z,57.12
2019-04-05T05:13:35.934Z,58.28
2019-04-05T05:15:43.044Z,57.09
2019-04-05T05:18:01.603Z,56.54
2019-04-05T05:20:12.205Z,56.50
2019-04-05T05:22:19.057Z,56.78
2019-04-05T05:24:26.720Z,56.27
2019-04-05T05:26:34.268Z,56.52
2019-04-05T05:28:41.908Z,55.99
2019-04-05T05:30:49.099Z,56.25
2019-04-05T05:32:56.489Z,55.91
2019-04-05T05:35:05.227Z,55.63
2019-04-05T05:37:15.283Z,55.73
2019-04-05T05:39:22.421Z,55.55
2019-04-05T05:41:29.640Z,55.54
2019-04-05T05:43:36.574Z,55.40
2019-04-05T05:45:46.532Z,55.18
2019-04-05T05:47:53.290Z,55.02
2019-04-05T05:50:02.991Z,54.86
2019-04-05T05:52:10.832Z,54.76
2019-04-05T05:54:19.055Z,55.09
2019-04-05T05:56:26.070Z,54.82
2019-04-05T05:58:34.594Z,54.47
2019-04-05T06:00:42.077Z,54.55
2019-04-05T06:02:49.372Z,54.22
2019-04-05T06:04:56.328Z,54.02
2019-04-05T06:07:04.266Z,53.85
2019-04-05T06:09:10.977Z,54.07
2019-04-05T06:11:19.211Z,53.83
2019-04-05T06:13:27.914Z,53.62
2019-04-05T06:15:37.594Z,53.09
2019-04-05T06:17:44.734Z,53.11
2019-04-05T06:19:51.390Z,52.72
2019-04-05T06:21:58.354Z,52.81
2019-04-05T06:24:06.613Z,52.60
2019-04-05T06:26:13.756Z,52.27
2019-04-05T06:28:20.582Z,52.32
2019-04-05T06:30:28.905Z,52.01
2019-04-05T06:32:36.237Z,51.85
2019-04-05T06:34:43.309Z,51.78
2019-04-05T06:36:51.420Z,51.27
2019-04-05T06:38:58.081Z,50.69
2019-04-05T06:41:05.474Z,50.38
2019-04-05T06:43:11.954Z,50.14
2019-04-05T06:45:20.434Z,49.88
2019-04-05T06:47:27.146Z,49.94
2019-04-05T06:49:34.554Z,49.46
2019-04-05T06:51:40.944Z,49.04
2019-04-05T06:53:50.411Z,49.28
2019-04-05T06:55:59.805Z,48.69
2019-04-05T06:58:06.171Z,48.90
2019-04-05T07:00:13.304Z,48.78
2019-04-05T07:02:20.396Z,48.65
2019-04-05T07:04:30.993Z,48.32
2019-04-05T07:06:37.645Z,48.21
2019-04-05T07:08:53.502Z,47.87
2019-04-05T07:10:52.293Z,47.17
2019-04-05T07:12:59.789Z,47.50
2019-04-05T07:15:08.197Z,47.26
2019-04-05T07:17:17.354Z,47.17
2019-04-05T07:19:24.116Z,46.76
2019-04-05T07:21:31.789Z,46.66
2019-04-05T07:23:39.181Z,46.44
2019-04-05T07:25:46.338Z,46.20
2019-04-05T07:27:53.921Z,46.50
2019-04-05T07:30:00.897Z,46.40
2019-04-05T07:32:08.444Z,46.02
2019-04-05T07:34:14.951Z,46.54
2019-04-05T07:36:21.831Z,45.60
2019-04-05T07:38:29.102Z,45.61
2019-04-05T07:40:36.437Z,45.96
2019-04-05T07:42:43.378Z,45.37
2019-04-05T07:45:03.591Z,45.40
2019-04-05T07:47:10.616Z,44.77
2019-04-05T07:49:17.891Z,44.22
2019-04-05T07:51:24.814Z,44.81
2019-04-05T07:53:31.653Z,45.18
2019-04-05T07:55:38.764Z,44.23
2019-04-05T07:57:46.854Z,44.26
2019-04-05T07:59:54.221Z,43.59
2019-04-05T08:02:04.355Z,43.15
2019-04-05T08:04:11.897Z,43.46
2019-04-05T08:06:19.329Z,43.99
2019-04-05T08:09:02.290Z,45.63
2019-04-05T08:11:11.262Z,43.49
2019-04-05T08:13:18.674Z,43.33
2019-04-05T08:15:25.791Z,43.30
2019-04-05T08:17:32.619Z,42.59
2019-04-05T08:19:40.139Z,42.55
2019-04-05T08:21:47.104Z,41.44
2019-04-05T08:23:54.135Z,41.49
2019-04-05T08:26:00.946Z,41.29
2019-04-05T08:28:08.577Z,42.10
2019-04-05T08:30:18.097Z,41.91
2019-04-05T08:32:24.949Z,41.79
2019-04-05T08:34:31.594Z,41.53
2019-04-05T08:36:38.438Z,41.20
2019-04-05T08:38:45.365Z,41.13
2019-04-05T08:40:52.869Z,41.13
2019-04-05T08:43:00.176Z,41.08
2019-04-05T08:45:08.921Z,40.68
2019-04-05T08:47:16.478Z,39.71
2019-04-05T08:49:23.256Z,39.62
2019-04-05T08:51:30.720Z,39.42
2019-04-05T08:53:37.620Z,38.72
2019-04-05T08:55:44.378Z,38.50
2019-04-05T08:57:51.649Z,39.21
2019-04-05T08:59:58.337Z,38.62
2019-04-05T09:02:05.658Z,38.41
2019-04-05T09:04:12.612Z,38.39
2019-04-05T09:06:19.791Z,38.16
2019-04-05T09:08:27.085Z,37.75
2019-04-05T09:10:33.937Z,37.83
2019-04-05T09:12:41.009Z,37.53
2019-04-05T09:14:49.213Z,37.14
2019-04-05T09:16:55.743Z,37.54
2019-04-05T09:19:04.416Z,37.29
2019-04-05T09:21:11.906Z,37.66
2019-04-05T09:23:19.699Z,37.88
2019-04-05T09:25:26.767Z,37.87
2019-04-05T09:27:34.111Z,38.12
2019-04-05T09:29:42.607Z,38.40
2019-04-05T09:31:49.658Z,37.87
2019-04-05T09:33:56.415Z,38.59
2019-04-05T09:36:05.246Z,38.84
2019-04-05T09:38:12.255Z,39.18
2019-04-05T09:40:21.277Z,38.88
2019-04-05T09:42:29.691Z,38.84
2019-04-05T09:44:36.953Z,38.39
2019-04-05T09:46:48.022Z,38.75
2019-04-05T09:48:54.084Z,38.80
2019-04-05T09:51:02.945Z,38.20
2019-04-05T09:53:12.582Z,38.32
2019-04-05T09:55:19.699Z,38.46
2019-04-05T09:57:26.731Z,38.19
2019-04-05T09:59:33.772Z,38.14
2019-04-05T10:01:40.610Z,37.98
2019-04-05T10:03:47.300Z,37.59
2019-04-05T10:05:54.172Z,38.09
2019-04-05T10:08:01.933Z,37.80
2019-04-05T10:10:10.432Z,36.93
2019-04-05T10:12:17.318Z,37.23
2019-04-05T10:14:23.800Z,37.98
2019-04-05T10:16:32.132Z,38.23
2019-04-05T10:18:39.215Z,38.14
2019-04-05T10:20:46.178Z,38.20
2019-04-05T10:22:53.231Z,38.21
2019-04-05T10:25:01.481Z,37.71
2019-04-05T10:27:09.820Z,38.11
2019-04-05T10:29:16.810Z,37.63
2019-04-05T10:31:24.983Z,37.49
2019-04-05T10:33:32.040Z,37.27
2019-04-05T10:35:39.227Z,37.26
2019-04-05T10:37:45.988Z,37.48
2019-04-05T10:39:54.813Z,37.18
2019-04-05T10:42:03.623Z,37.97
2019-04-05T10:44:12.360Z,37.87
2019-04-05T10:46:19.879Z,37.84
2019-04-05T10:48:28.650Z,37.65
2019-04-05T10:50:35.887Z,37.86
2019-04-05T10:52:43.401Z,37.93
2019-04-05T10:54:52.347Z,38.03
2019-04-05T10:56:59.622Z,38.07
2019-04-05T10:59:06.659Z,37.93
2019-04-05T11:01:13.569Z,37.59
2019-04-05T11:03:20.771Z,37.29
2019-04-05T11:05:28.410Z,37.52
2019-04-05T11:07:35.300Z,37.50
2019-04-05T11:09:42.656Z,37.43
2019-04-05T11:11:49.627Z,37.90
2019-04-05T11:13:58.100Z,37.39
2019-04-05T11:16:05.664Z,37.23
2019-04-05T11:18:12.431Z,36.91
2019-04-05T11:20:21.967Z,36.73
2019-04-05T11:22:28.747Z,36.45
2019-04-05T11:24:35.476Z,36.56
2019-04-05T11:26:42.658Z,36.14
2019-04-05T11:28:49.422Z,36.09
2019-04-05T11:30:56.460Z,35.80
2019-04-05T11:33:03.050Z,35.12
2019-04-05T11:35:10.906Z,35.04
2019-04-05T11:37:19.759Z,34.71
2019-04-05T11:39:27.430Z,35.27
2019-04-05T11:41:38.475Z,34.40
2019-04-05T11:43:49.230Z,35.03
2019-04-05T11:45:57.157Z,35.10
2019-04-05T11:48:06.413Z,35.04
2019-04-05T11:50:15.684Z,34.60
2019-04-05T11:52:22.540Z,35.11
2019-04-05T11:54:30.061Z,35.07
2019-04-05T11:56:37.055Z,34.97
2019-04-05T11:58:48.517Z,34.83
2019-04-05T12:00:57.327Z,34.71
2019-04-05T12:03:05.649Z,34.15
2019-04-05T12:05:14.726Z,33.90
2019-04-05T12:07:26.329Z,33.94
2019-04-05T12:09:31.255Z,33.47
2019-04-05T12:11:38.317Z,33.12
2019-04-05T12:13:47.539Z,32.87
2019-04-05T12:15:53.561Z,32.71
2019-04-05T12:18:00.374Z,32.54
2019-04-05T12:20:09.655Z,32.35
2019-04-05T12:22:19.789Z,32.40
2019-04-05T12:24:26.305Z,32.05
2019-04-05T12:26:34.477Z,31.36
2019-04-05T12:28:53.079Z,30.68
2019-04-05T12:31:01.856Z,31.07
2019-04-05T12:33:14.337Z,30.33
2019-04-05T12:35:21.393Z,30.57
2019-04-05T12:39:38.683Z,30.35
2019-04-05T12:41:45.900Z,30.83
2019-04-05T12:43:53.824Z,30.58
2019-04-05T12:46:01.426Z,30.06
2019-04-05T12:48:09.874Z,30.08
2019-04-05T12:50:17.434Z,30.62
2019-04-05T12:52:27.357Z,30.83
2019-04-05T12:54:33.939Z,30.07
2019-04-05T12:56:40.910Z,30.62
2019-04-05T12:58:49.292Z,29.99
2019-04-05T13:00:57.029Z,30.73
2019-04-05T13:03:04.123Z,30.83
2019-04-05T13:05:12.542Z,30.75
2019-04-05T13:07:22.514Z,30.85
2019-04-05T13:09:29.803Z,30.82
2019-04-05T13:11:39.114Z,31.22
2019-04-05T13:13:45.903Z,31.08
2019-04-05T13:15:53.049Z,30.72
2019-04-05T13:18:01.205Z,30.92
2019-04-05T13:20:10.042Z,30.47
2019-04-05T13:22:16.625Z,30.42
2019-04-05T13:24:24.329Z,30.54
2019-04-05T13:26:31.712Z,30.65
2019-04-05T13:28:38.533Z,30.64
2019-04-05T13:30:48.289Z,31.27
2019-04-05T13:32:55.043Z,31.21
2019-04-05T13:35:02.039Z,30.87
2019-04-05T13:37:19.685Z,31.52
2019-04-05T13:39:17.520Z,31.56
2019-04-05T13:41:32.244Z,31.66
2019-04-05T13:43:38.558Z,31.64
2019-04-05T13:45:45.281Z,31.77
2019-04-05T13:47:52.103Z,31.66
2019-04-05T13:50:00.489Z,31.71
2019-04-05T13:52:09.634Z,31.61
2019-04-05T13:54:16.864Z,31.65
2019-04-05T13:56:24.000Z,31.75
2019-04-05T13:58:30.773Z,31.90
2019-04-05T14:00:38.957Z,32.02
2019-04-05T14:02:49.990Z,31.73
2019-04-05T14:05:01.183Z,31.93
2019-04-05T14:07:08.732Z,31.85
2019-04-05T14:09:18.089Z,31.71
2019-04-05T14:11:26.029Z,31.63
2019-04-05T14:13:33.180Z,31.81
2019-04-05T14:15:41.804Z,31.03
2019-04-05T14:17:49.511Z,31.79
2019-04-05T14:19:56.504Z,31.86
2019-04-05T14:22:08.795Z,31.83
2019-04-05T14:24:15.369Z,31.63
2019-04-05T14:26:22.374Z,31.57
2019-04-05T14:28:29.328Z,31.40
2019-04-05T14:30:36.966Z,31.61
2019-04-05T14:32:45.732Z,31.84
2019-04-05T14:34:54.886Z,31.81
2019-04-05T14:37:01.851Z,31.61
2019-04-05T14:39:12.540Z,31.49
2019-04-05T14:41:22.616Z,31.44
2019-04-05T14:43:30.489Z,31.56
2019-04-05T14:45:37.510Z,31.72
2019-04-05T14:47:45.770Z,31.69
2019-04-05T14:49:52.538Z,31.38
2019-04-05T14:52:01.165Z,31.55
2019-04-05T14:54:09.947Z,31.48
2019-04-05T14:56:17.626Z,31.60
2019-04-05T14:58:24.516Z,31.50
2019-04-05T15:00:31.558Z,31.74
2019-04-05T15:02:39.172Z,31.48
2019-04-05T15:04:49.201Z,31.49
2019-04-05T15:06:55.669Z,31.56
2019-04-05T15:09:02.724Z,31.60
2019-04-05T15:11:11.322Z,31.64
2019-04-05T15:13:19.718Z,31.74
2019-04-05T15:15:28.164Z,31.86
2019-04-05T15:17:47.423Z,31.66
2019-04-05T15:19:55.191Z,31.82
2019-04-05T15:22:05.666Z,31.51
2019-04-05T15:24:10.075Z,31.71
2019-04-05T15:26:20.571Z,31.84
2019-04-05T15:28:27.624Z,31.91
2019-04-05T15:30:35.478Z,31.94
2019-04-05T15:32:42.822Z,31.82
2019-04-05T15:34:49.597Z,31.93
2019-04-05T15:36:56.830Z,31.63
2019-04-05T15:39:03.982Z,31.79
2019-04-05T15:41:11.150Z,31.99
2019-04-05T15:43:18.171Z,31.87
2019-04-05T15:45:24.961Z,32.21
2019-04-05T15:47:32.167Z,32.20
2019-04-05T15:49:42.252Z,32.10
2019-04-05T15:51:49.521Z,32.14
2019-04-05T15:53:57.317Z,32.27
2019-04-05T15:56:05.065Z,32.17
2019-04-05T15:58:12.295Z,32.45
2019-04-05T16:00:25.949Z,32.51
2019-04-05T16:02:33.569Z,32.36
2019-04-05T16:04:40.864Z,32.41
2019-04-05T16:06:50.693Z,32.78
2019-04-05T16:09:00.094Z,32.87
2019-04-05T16:11:07.710Z,32.90
2019-04-05T16:13:14.729Z,33.24
2019-04-05T16:15:22.311Z,33.04
2019-04-05T16:17:29.528Z,33.30
2019-04-05T16:19:37.550Z,33.11
2019-04-05T16:21:45.300Z,33.46
2019-04-05T16:23:53.969Z,33.51
2019-04-05T16:26:01.830Z,33.44
2019-04-05T16:28:09.127Z,33.43
2019-04-05T16:30:16.727Z,33.54
2019-04-05T16:32:25.381Z,33.65
2019-04-05T16:34:33.850Z,33.67
2019-04-05T16:36:41.600Z,33.56
2019-04-05T16:38:48.812Z,33.61
2019-04-05T16:41:00.593Z,33.55
2019-04-05T16:43:10.392Z,33.76
2019-04-05T16:45:21.148Z,33.88
2019-04-05T16:47:32.890Z,34.38
2019-04-05T16:49:41.859Z,34.36
2019-04-05T16:51:49.564Z,34.28
2019-04-05T16:54:03.437Z,34.70
2019-04-05T16:56:10.536Z,34.86
2019-04-05T16:58:18.862Z,35.01
2019-04-05T17:00:26.618Z,35.42
2019-04-05T17:02:37.410Z,35.72
2019-04-05T17:05:06.626Z,36.02
2019-04-05T17:07:14.417Z,36.04
2019-04-05T17:09:24.637Z,36.46
2019-04-05T17:11:33.787Z,36.86
2019-04-05T17:13:41.519Z,37.11
2019-04-05T17:15:49.731Z,37.40
2019-04-05T17:17:59.438Z,37.70
2019-04-05T17:20:08.812Z,37.59
2019-04-05T17:22:17.143Z,37.79
2019-04-05T17:24:24.639Z,37.99
2019-04-05T17:26:32.254Z,37.89
2019-04-05T17:28:40.449Z,37.93
2019-04-05T17:30:47.935Z,38.17
2019-04-05T17:32:55.248Z,38.39
2019-04-05T17:35:04.081Z,38.38
2019-04-05T17:37:12.088Z,38.50
2019-04-05T17:39:20.373Z,38.80
2019-04-05T17:41:30.204Z,39.04
2019-04-05T17:43:38.260Z,38.90
2019-04-05T17:45:46.504Z,39.38
2019-04-05T17:47:56.129Z,40.02
2019-04-05T17:50:10.796Z,40.21
2019-04-05T17:52:19.202Z,40.22
2019-04-05T17:54:27.430Z,40.46
2019-04-05T17:56:36.868Z,40.46
2019-04-05T17:58:44.752Z,40.67
2019-04-05T18:00:52.272Z,41.18
2019-04-05T18:02:59.540Z,41.37
2019-04-05T18:05:11.246Z,41.49
2019-04-05T18:07:18.892Z,41.54
2019-04-05T18:09:27.464Z,41.84
2019-04-05T18:11:34.905Z,41.77
2019-04-05T18:13:42.415Z,41.84
2019-04-05T18:15:52.724Z,41.90
2019-04-05T18:17:58.655Z,41.88
2019-04-05T18:20:09.644Z,41.98
2019-04-05T18:22:17.135Z,42.19
2019-04-05T18:24:24.248Z,42.32
2019-04-05T18:26:33.616Z,42.55
2019-04-05T18:28:40.956Z,42.53
2019-04-05T18:30:48.855Z,42.64
2019-04-05T18:32:56.479Z,42.98
2019-04-05T18:35:04.144Z,43.25
2019-04-05T18:37:11.646Z,43.25
2019-04-05T18:39:20.596Z,43.07
2019-04-05T18:41:27.819Z,43.11
2019-04-05T18:43:35.023Z,43.46
2019-04-05T18:45:44.136Z,43.51
2019-04-05T18:47:51.856Z,43.78
2019-04-05T18:50:03.171Z,44.07
2019-04-05T18:52:09.305Z,44.20
2019-04-05T18:54:17.192Z,44.33
2019-04-05T18:56:25.065Z,44.60
2019-04-05T18:58:33.075Z,44.72
2019-04-05T19:00:40.487Z,44.67
2019-04-05T19:02:47.599Z,44.72
2019-04-05T19:04:55.050Z,44.91
2019-04-05T19:07:02.230Z,44.98
2019-04-05T19:09:11.939Z,45.23
2019-04-05T19:11:21.210Z,45.41
2019-04-05T19:13:30.550Z,45.28
2019-04-05T19:15:37.907Z,45.34
2019-04-05T19:17:45.427Z,45.57
2019-04-05T19:19:52.473Z,45.71
2019-04-05T19:21:59.986Z,45.78
2019-04-05T19:24:07.197Z,45.98
2019-04-05T19:26:15.508Z,46.17
2019-04-05T19:28:23.654Z,46.27
2019-04-05T19:50:01.844Z,46.31
2019-04-05T19:52:09.260Z,46.35
2019-04-05T19:54:16.574Z,46.52
2019-04-05T19:56:23.676Z,46.70
2019-04-05T19:58:31.008Z,46.43
2019-04-05T20:00:40.003Z,46.45
2019-04-05T20:02:47.121Z,46.14
2019-04-05T20:04:54.584Z,46.12
2019-04-05T20:07:01.565Z,46.08
2019-04-05T20:09:09.544Z,45.90
2019-04-05T20:11:18.021Z,45.89
2019-04-05T20:13:25.627Z,46.19
2019-04-05T20:15:33.270Z,46.08
2019-04-05T20:17:40.677Z,46.10
2019-04-05T20:19:48.622Z,45.90
2019-04-05T20:21:56.415Z,45.63
2019-04-05T20:24:13.784Z,45.81
2019-04-05T20:26:13.760Z,45.77
2019-04-05T20:28:21.450Z,45.93
2019-04-05T20:30:30.230Z,46.11
2019-04-05T20:32:38.230Z,46.07
2019-04-05T20:34:45.489Z,46.08
2019-04-05T20:36:53.778Z,46.17
2019-04-05T20:39:00.963Z,46.24
2019-04-05T20:41:10.684Z,46.40
2019-04-05T20:43:17.904Z,46.53
2019-04-05T20:45:25.455Z,46.63
2019-04-05T20:47:32.993Z,46.70
2019-04-05T20:49:40.255Z,46.86
2019-04-05T20:51:47.335Z,47.06
2019-04-05T20:53:54.794Z,47.22
2019-04-05T20:56:01.831Z,47.44
2019-04-05T20:58:09.601Z,47.67
2019-04-05T21:00:17.738Z,47.65
2019-04-05T21:02:27.066Z,47.80
2019-04-05T21:04:34.559Z,47.74
2019-04-05T21:06:41.845Z,47.92
2019-04-05T21:08:49.121Z,48.21
2019-04-05T21:10:57.471Z,48.06
2019-04-05T21:13:06.648Z,48.10
2019-04-05T21:15:14.874Z,48.33
2019-04-05T21:17:21.691Z,48.14
2019-04-05T21:19:29.070Z,48.31
2019-04-05T21:21:36.052Z,48.01
2019-04-05T21:23:42.736Z,48.16
2019-04-05T21:25:50.117Z,48.17
2019-04-05T21:27:57.435Z,48.43
2019-04-05T21:30:05.166Z,48.52
2019-04-05T21:32:13.725Z,48.87
2019-04-05T21:34:20.958Z,48.85
2019-04-05T21:36:27.676Z,48.89
2019-04-05T21:38:35.740Z,48.87
2019-04-05T21:40:42.403Z,48.97
2019-04-05T21:42:50.135Z,48.91
2019-04-05T21:44:56.908Z,48.90
2019-04-05T21:47:06.189Z,48.96
2019-04-05T21:49:13.588Z,49.12
2019-04-05T21:51:20.985Z,49.30
2019-04-05T21:53:27.927Z,49.33
2019-04-05T21:55:35.111Z,49.30
2019-04-05T21:57:43.816Z,49.39
2019-04-05T21:59:50.773Z,49.55
2019-04-05T22:01:58.073Z,49.81
2019-04-05T22:04:05.830Z,49.85
2019-04-05T22:06:12.524Z,49.69
2019-04-05T22:08:20.327Z,49.75
2019-04-05T22:10:26.984Z,50.00
2019-04-05T22:12:34.001Z,50.09
2019-04-05T22:14:41.399Z,50.36
2019-04-05T22:16:49.991Z,50.24
2019-04-05T22:18:57.126Z,50.28
2019-04-05T22:21:03.937Z,50.31
2019-04-05T22:23:13.292Z,50.49
2019-04-05T22:25:20.336Z,50.30
2019-04-05T22:27:26.965Z,50.45
2019-04-05T22:29:33.860Z,50.63
2019-04-05T22:31:40.736Z,50.47
2019-04-05T22:33:47.729Z,50.60
2019-04-05T22:35:54.893Z,50.74
2019-04-05T22:38:01.570Z,50.66
2019-04-05T22:40:09.143Z,50.60
2019-04-05T22:42:16.156Z,50.86
2019-04-05T22:44:22.910Z,50.80
2019-04-05T22:46:30.447Z,50.68
2019-04-05T22:48:39.159Z,50.84
2019-04-05T22:50:46.279Z,50.85
2019-04-05T22:52:53.281Z,50.84
2019-04-05T22:55:10.556Z,51.01
2019-04-05T22:57:10.444Z,50.86
2019-04-05T22:59:17.447Z,51.04
2019-04-05T23:01:24.516Z,51.19
2019-04-05T23:03:32.480Z,51.29
2019-04-05T23:05:39.231Z,51.24
2019-04-05T23:07:46.222Z,51.30
2019-04-05T23:09:52.856Z,51.14
2019-04-05T23:12:00.197Z,51.39
2019-04-05T23:14:07.351Z,51.46
2019-04-05T23:16:14.477Z,51.64
2019-04-05T23:18:21.417Z,51.78
2019-04-05T23:20:27.889Z,51.89
2019-04-05T23:22:34.678Z,51.89
2019-04-05T23:24:41.631Z,52.03
2019-04-05T23:26:48.574Z,51.98
2019-04-05T23:28:55.393Z,51.84
2019-04-05T23:31:02.946Z,51.99
2019-04-05T23:33:10.146Z,52.14
2019-04-05T23:35:18.302Z,52.20
2019-04-05T23:37:27.823Z,52.25
2019-04-05T23:39:34.882Z,52.50
2019-04-05T23:41:41.773Z,52.34
2019-04-05T23:43:48.854Z,52.21
2019-04-05T23:45:55.687Z,52.33
2019-04-05T23:48:02.306Z,52.16
2019-04-05T23:50:09.307Z,52.05
2019-04-05T23:52:15.993Z,52.29
2019-04-05T23:54:22.837Z,52.33
2019-04-05T23:56:30.076Z,52.49
2019-04-05T23:58:36.631Z,52.60
